CYYT

St. John's International Airport

St. John's, Canada
TAF CYYT 261139Z 2612/2712 27010G20KT P6SM BKN160 FM261400 25010G20KT P6SM FEW030 BKN150 FM262300 20012G22KT P6SM OVC140 FM270500 19015G25KT P6SM BKN030 BKN080 FM270900 18018G30KT P6SM -RA SCT012 OVC050 FM271100 18025G35KT 4SM -SHRA BR BKN008 OVC015 RMK NXT FCST BY 261800Z
Issued Valid From Valid To
Apr-26 @ 11:39 UTC
(2 hours ago)
Apr-26 @ 12:00 UTC
(2 hours ago)
Apr-27 @ 12:00 UTC
(in 22 hours)
Apr-26 @ 12:00 to Apr-26 @ 14:00
TAF CYYT 261139Z 2612/2712 27010G20KT P6SM BKN160
Wind Visibility Clouds
270° at 10 knots
 Gusting to 20 knots
Greater than 6 miles
  • Broken at 16,000' AGL
From Apr-26 @ 14:00 to Apr-26 @ 23:00
FM261400 25010G20KT P6SM FEW030 BKN150
Wind Visibility Clouds
250° at 10 knots
 Gusting to 20 knots
Greater than 6 miles
  • Few at 3,000' AGL
  • Broken at 15,000' AGL
From Apr-26 @ 23:00 to Apr-27 @ 05:00
FM262300 20012G22KT P6SM OVC140
Wind Visibility Clouds
200° at 12 knots
 Gusting to 22 knots
Greater than 6 miles
  • Overcast at 14,000' AGL
From Apr-27 @ 05:00 to Apr-27 @ 09:00
FM270500 19015G25KT P6SM BKN030 BKN080
Wind Visibility Clouds
190° at 15 knots
 Gusting to 25 knots
Greater than 6 miles
  • Broken at 3,000' AGL
  • Broken at 8,000' AGL
From Apr-27 @ 09:00 to Apr-27 @ 11:00
FM270900 18018G30KT P6SM -RA SCT012 OVC050
Wind Visibility Clouds Conditions
180° at 18 knots
 Gusting to 30 knots
Greater than 6 miles
  • Scattered at 1,200' AGL
  • Overcast at 5,000' AGL
  • Light Rain
From Apr-27 @ 11:00 to Apr-27 @ 12:00
FM271100 18025G35KT 4SM -SHRA BR BKN008 OVC015 RMK NXT FCST BY 261800Z
Wind Visibility Clouds Conditions
180° at 25 knots
 Gusting to 35 knots
4 miles
  • Broken at 800' AGL
  • Overcast at 1,500' AGL
  • Light Rain
  • Mist
TAF CYYT 261139Z 2612/2712 27010G20KT P6SM BKN160 FM261400 25010G20KT P6SM FEW030 BKN150 FM262300 20012G22KT P6SM OVC140 FM270500 19015G25KT P6SM BKN030 BKN080 FM270900 18018G30KT P6SM -RA SCT012 OVC050 FM271100 18025G35KT 4SM -SHRA BR BKN008 OVC015 RMK NXT FCST BY 261800Z
Issued Apr-26 @ 11:39 UTC
(2 hours ago)
Valid From Apr-26 @ 12:00 UTC
(2 hours ago)
Valid To Apr-27 @ 12:00 UTC
(in 22 hours)
Apr-26 @ 12:00 - Apr-26 @ 14:00
Wind Visibility
270° at 10 knots
 Gusting to 20 knots
Greater than 6 miles
Clouds
  • Broken at 16,000' AGL
From Apr-26 @ 14:00 - Apr-26 @ 23:00
Wind Visibility
250° at 10 knots
 Gusting to 20 knots
Greater than 6 miles
Clouds
  • Few at 3,000' AGL
  • Broken at 15,000' AGL
From Apr-26 @ 23:00 - Apr-27 @ 05:00
Wind Visibility
200° at 12 knots
 Gusting to 22 knots
Greater than 6 miles
Clouds
  • Overcast at 14,000' AGL
From Apr-27 @ 05:00 - Apr-27 @ 09:00
Wind Visibility
190° at 15 knots
 Gusting to 25 knots
Greater than 6 miles
Clouds
  • Broken at 3,000' AGL
  • Broken at 8,000' AGL
From Apr-27 @ 09:00 - Apr-27 @ 11:00
Wind Visibility
180° at 18 knots
 Gusting to 30 knots
Greater than 6 miles
Clouds
  • Scattered at 1,200' AGL
  • Overcast at 5,000' AGL
Conditions
  • Light Rain
From Apr-27 @ 11:00 - Apr-27 @ 12:00
Wind Visibility
180° at 25 knots
 Gusting to 35 knots
4 miles
Clouds
  • Broken at 800' AGL
  • Overcast at 1,500' AGL
Conditions
  • Light Rain
  • Mist